Time;durP1;ratioP1;P1;durP2;ratioP2;P2;SDS_P1;SDS_P2;PMS_P1;PMS_P2;Temp;Humidity;BMP_temperature;BMP_pressure;BME280_temperature;BME280_humidity;BME280_pressure;Samples;Min_cycle;Max_cycle;Signal;HPM_P1;HPM_P2
2022/09/22 00:00:55;;;;;;;3.72;2.65;;;;;;;10.16;60.67;99733.94;5127730;28;20307;-72
2022/09/22 00:03:22;;;;;;;3.50;2.15;;;;;;;10.56;61.55;99819.47;5127855;28;20043;-72
2022/09/22 00:05:49;;;;;;;3.80;2.38;;;;;;;10.56;61.96;99812.38;5127498;28;20101;-72
2022/09/22 00:08:18;;;;;;;4.18;2.60;;;;;;;10.56;61.63;99814.19;5127332;28;20056;-72
2022/09/22 00:10:45;;;;;;;3.60;2.35;;;;;;;10.50;61.87;99819.78;5127586;28;20055;-72
2022/09/22 00:13:12;;;;;;;4.32;2.50;;;;;;;10.47;62.29;99804.88;5127559;28;20063;-72
2022/09/22 00:15:45;;;;;;;3.83;2.63;;;;;;;10.42;61.87;99812.19;5127147;28;20051;-72
2022/09/22 00:18:12;;;;;;;5.25;2.60;;;;;;;10.32;62.48;99815.34;5127401;28;20112;-72
2022/09/22 00:20:40;;;;;;;3.80;2.80;;;;;;;10.42;62.33;99813.97;5127067;27;20056;-72
2022/09/22 00:23:07;;;;;;;3.10;2.40;;;;;;;10.38;62.36;99815.06;5127063;28;20055;-72
2022/09/22 00:25:39;;;;;;;3.28;2.35;;;;;;;10.33;61.87;99806.47;5127063;28;20056;-72
2022/09/22 00:28:06;;;;;;;4.32;2.55;;;;;;;10.30;62.51;99807.47;5126825;28;20085;-71
2022/09/22 00:30:33;;;;;;;3.53;2.75;;;;;;;10.31;62.58;99809.19;5127172;28;20059;-71
2022/09/22 00:33:01;;;;;;;3.85;2.47;;;;;;;10.33;62.75;99809.13;5127148;28;20108;-71
2022/09/22 00:35:28;;;;;;;3.45;2.35;;;;;;;10.32;62.48;99810.91;5126964;28;20325;-72
2022/09/22 00:37:55;;;;;;;3.25;2.40;;;;;;;10.31;62.57;99803.88;5126915;28;20108;-71
2022/09/22 00:40:22;;;;;;;4.05;2.60;;;;;;;10.30;62.74;99802.16;5126843;28;20135;-72
2022/09/22 00:42:51;;;;;;;3.13;2.45;;;;;;;10.06;62.83;99767.09;5126880;28;20316;-71
2022/09/22 00:45:18;;;;;;;3.13;2.17;;;;;;;10.26;62.97;99800.59;5126806;28;20059;-72
2022/09/22 00:47:47;;;;;;;4.15;2.50;;;;;;;10.07;63.04;99776.75;5126768;28;20043;-72
2022/09/22 00:50:17;;;;;;;4.35;2.60;;;;;;;10.24;62.60;99791.84;5126759;28;20059;-72
2022/09/22 00:52:50;;;;;;;3.40;2.33;;;;;;;10.16;62.92;99786.91;5126550;28;20114;-71
2022/09/22 00:55:22;;;;;;;3.38;2.40;;;;;;;9.69;62.92;99724.72;5126319;28;20055;-72
2022/09/22 00:57:53;;;;;;;3.25;2.33;;;;;;;10.14;62.61;99794.06;5126679;27;20047;-72
2022/09/22 01:00:21;;;;;;;4.30;2.90;;;;;;;10.06;63.09;99787.41;5126067;28;20055;-72
2022/09/22 01:02:51;;;;;;;3.50;2.75;;;;;;;10.16;63.18;99788.72;5126141;28;20096;-72
2022/09/22 01:05:22;;;;;;;4.90;2.72;;;;;;;10.12;63.32;99784.47;5126607;28;20311;-72
2022/09/22 01:07:50;;;;;;;4.70;2.78;;;;;;;10.12;63.22;99781.84;5126336;28;20126;-72
2022/09/22 01:10:19;;;;;;;3.80;2.85;;;;;;;10.14;63.30;99780.84;5126169;28;20063;-72
2022/09/22 01:12:57;;;;;;;3.53;2.42;;;;;;;10.08;62.89;99759.94;5126248;28;20261;-71
2022/09/22 01:15:32;;;;;;;3.95;2.50;;;;;;;10.17;62.87;99780.69;5125088;28;20084;-72
2022/09/22 01:18:18;;;;;;;4.78;2.72;;;;;;;10.09;62.82;99774.91;5126359;28;20262;-72
2022/09/22 01:21:23;;;;;;;3.38;2.33;;;;;;;10.10;62.51;99779.25;5125973;28;20052;-73
2022/09/22 01:24:18;;;;;;;3.20;2.40;;;;;;;9.00;62.89;99604.28;5063803;28;20131;-72
2022/09/22 01:27:09;;;;;;;;;;;;;;;9.88;63.21;99766.16;5064347;28;20094;-71
2022/09/22 01:30:24;;;;;;;4.38;2.80;;;;;;;9.88;63.27;99766.16;5115447;28;19928;-72
2022/09/22 01:33:08;;;;;;;3.92;2.50;;;;;;;9.84;63.37;99761.06;5111366;28;20124;-72
2022/09/22 01:35:44;;;;;;;3.75;2.90;;;;;;;9.85;63.65;99762.78;5126075;28;20058;-71
2022/09/22 01:38:18;;;;;;;4.78;2.58;;;;;;;9.82;63.93;99771.72;5125810;28;20101;-72
2022/09/22 01:40:52;;;;;;;4.50;2.50;;;;;;;9.93;63.64;99758.84;5125741;28;20055;-72
2022/09/22 01:43:31;;;;;;;3.87;2.70;;;;;;;9.91;63.68;99751.91;5125766;28;20112;-71
2022/09/22 01:46:03;;;;;;;4.45;2.75;;;;;;;9.92;63.83;99756.28;5125851;28;20307;-70
2022/09/22 01:48:35;;;;;;;3.60;2.40;;;;;;;9.91;64.04;99757.22;5125922;28;20063;-71
2022/09/22 01:51:08;;;;;;;3.38;2.63;;;;;;;9.95;63.53;99754.34;5125713;28;20056;-71
2022/09/22 01:53:41;;;;;;;4.25;2.65;;;;;;;9.88;63.92;99747.63;5125416;28;20055;-71
2022/09/22 01:56:11;;;;;;;4.90;2.90;;;;;;;9.88;63.97;99752.06;5125936;28;20056;-71
2022/09/22 01:58:42;;;;;;;4.07;2.83;;;;;;;9.85;63.99;99750.41;5126206;28;20352;-71
2022/09/22 02:01:13;;;;;;;4.45;3.05;;;;;;;9.51;64.03;99731.69;5125862;28;20063;-72
2022/09/22 02:03:49;;;;;;;4.15;2.83;;;;;;;9.87;64.04;99753.84;5125878;28;20189;-72
2022/09/22 02:06:21;;;;;;;3.53;2.50;;;;;;;9.78;64.27;99751.63;5125769;28;20052;-72
2022/09/22 02:08:53;;;;;;;5.18;2.65;;;;;;;9.74;64.43;99744.75;5124556;28;20112;-72
2022/09/22 02:11:21;;;;;;;3.88;2.75;;;;;;;9.73;64.55;99753.63;5125456;28;20055;-72
2022/09/22 02:13:48;;;;;;;3.55;2.58;;;;;;;9.72;64.55;99745.75;5127576;28;20055;-72
2022/09/22 02:16:19;;;;;;;3.25;2.35;;;;;;;9.65;64.57;99712.53;5129507;28;20052;-72
2022/09/22 02:18:50;;;;;;;4.20;2.72;;;;;;;9.76;64.39;99731.44;5129515;28;20101;-72
2022/09/22 02:21:19;;;;;;;4.88;3.03;;;;;;;9.72;64.55;99738.66;5129483;27;20063;-72
2022/09/22 02:23:48;;;;;;;5.10;3.08;;;;;;;9.62;64.61;99708.25;5129700;28;20059;-71
2022/09/22 02:26:22;;;;;;;6.60;3.83;;;;;;;9.85;64.47;99733.66;5129689;28;20078;-71
2022/09/22 02:28:53;;;;;;;3.53;2.50;;;;;;;9.83;64.86;99738.16;5129363;28;20055;-71
2022/09/22 02:31:22;;;;;;;3.78;2.75;;;;;;;9.86;64.93;99745.97;5129249;28;20457;-72
2022/09/22 02:33:51;;;;;;;4.30;2.50;;;;;;;9.92;64.67;99746.53;5129448;28;20104;-71
2022/09/22 02:36:45;;;;;;;3.65;2.60;;;;;;;9.92;64.58;99743.03;5129386;28;20116;-73
2022/09/22 02:39:18;;;;;;;3.97;2.80;;;;;;;9.97;64.62;99745.47;5129974;28;20235;-72
2022/09/22 02:42:01;;;;;;;3.47;2.47;;;;;;;9.54;64.41;99678.63;5129379;27;20377;-72
2022/09/22 02:44:33;;;;;;;3.30;2.47;;;;;;;9.90;64.87;99748.41;5129625;28;20250;-72
2022/09/22 02:47:06;;;;;;;4.60;3.25;;;;;;;9.91;65.01;99749.25;5128952;28;20315;-72
2022/09/22 02:49:35;;;;;;;4.15;3.15;;;;;;;9.97;64.74;99748.97;5128927;28;20109;-72
2022/09/22 02:52:08;;;;;;;3.55;3.10;;;;;;;9.93;64.75;99742.97;5128786;27;20136;-72
2022/09/22 02:54:35;;;;;;;3.88;2.97;;;;;;;9.92;65.09;99753.63;5129152;28;20101;-72
2022/09/22 02:57:02;;;;;;;4.07;3.13;;;;;;;9.82;64.81;99726.72;5128923;28;20081;-71
2022/09/22 02:59:30;;;;;;;4.00;2.65;;;;;;;9.94;65.13;99751.78;5128628;28;20250;-71
2022/09/22 03:01:57;;;;;;;3.88;2.83;;;;;;;9.94;65.15;99747.34;5128987;28;20116;-71
2022/09/22 03:04:24;;;;;;;4.05;2.70;;;;;;;9.95;65.35;99746.41;5128507;28;20108;-71
2022/09/22 03:06:53;;;;;;;3.70;2.75;;;;;;;9.94;65.34;99738.53;5128860;28;20311;-71
2022/09/22 03:09:20;;;;;;;3.78;2.78;;;;;;;9.96;65.31;99739.31;5128711;28;20056;-72
2022/09/22 03:11:47;;;;;;;3.65;3.05;;;;;;;10.00;65.19;99737.38;5128745;27;20055;-72
2022/09/22 03:14:14;;;;;;;3.88;2.67;;;;;;;9.96;65.43;99731.38;5128678;28;20361;-72
2022/09/22 03:16:41;;;;;;;4.70;2.83;;;;;;;9.95;65.42;99730.53;5128298;28;20051;-71
2022/09/22 03:19:08;;;;;;;4.72;3.28;;;;;;;10.01;65.21;99732.03;5128348;28;20059;-72
2022/09/22 03:21:35;;;;;;;3.58;2.83;;;;;;;9.88;65.02;99707.03;5128284;28;20051;-72
2022/09/22 03:24:04;;;;;;;3.28;2.40;;;;;;;10.04;64.87;99734.53;5127755;28;20056;-71
2022/09/22 03:26:32;;;;;;;3.47;2.90;;;;;;;10.08;64.68;99735.25;5128723;28;20071;-71
2022/09/22 03:28:59;;;;;;;5.85;2.63;;;;;;;10.02;64.88;99733.75;5127838;28;20056;-71
2022/09/22 03:31:26;;;;;;;3.85;2.80;;;;;;;10.06;65.17;99734.44;5128387;28;20055;-71
2022/09/22 03:33:53;;;;;;;4.45;2.90;;;;;;;10.05;64.89;99733.59;5128350;27;20113;-71
2022/09/22 03:36:20;;;;;;;3.85;2.97;;;;;;;10.08;64.95;99727.28;5128253;28;20323;-71
2022/09/22 03:38:48;;;;;;;3.78;2.85;;;;;;;10.06;64.93;99737.09;5127966;28;20265;-71
2022/09/22 03:41:16;;;;;;;3.92;2.70;;;;;;;10.09;64.72;99731.66;5128107;28;20113;-71
2022/09/22 03:43:43;;;;;;;3.25;2.58;;;;;;;10.05;64.73;99733.59;5128147;27;20072;-71
2022/09/22 03:46:12;;;;;;;4.50;2.78;;;;;;;9.58;64.69;99651.97;5128135;28;20093;-71
2022/09/22 03:48:40;;;;;;;4.47;3.05;;;;;;;10.05;64.92;99723.00;5128328;28;20056;-71
2022/09/22 03:51:07;;;;;;;3.90;2.67;;;;;;;10.00;64.95;99709.13;5127762;28;20067;-71
2022/09/22 03:53:35;;;;;;;4.45;3.03;;;;;;;10.13;64.67;99725.28;5127674;28;20059;-71
2022/09/22 03:56:07;;;;;;;3.95;3.13;;;;;;;10.19;64.41;99738.25;5127814;28;20085;-71
2022/09/22 03:58:36;;;;;;;4.57;3.40;;;;;;;9.95;64.28;99705.81;5127620;28;20101;-71
2022/09/22 04:01:04;;;;;;;3.85;2.95;;;;;;;10.07;64.29;99721.13;5127534;28;20059;-71
2022/09/22 04:03:32;;;;;;;4.63;3.25;;;;;;;9.94;64.43;99699.69;5127640;28;20368;-71
2022/09/22 04:05:59;;;;;;;4.72;3.30;;;;;;;10.07;64.72;99729.09;5127849;27;20112;-71
2022/09/22 04:08:26;;;;;;;4.10;3.17;;;;;;;10.06;64.61;99719.41;5127621;28;20055;-71
2022/09/22 04:10:53;;;;;;;3.65;2.70;;;;;;;10.02;64.66;99712.56;5127336;28;20059;-71
2022/09/22 04:13:20;;;;;;;3.15;2.30;;;;;;;9.88;64.71;99688.50;5127334;28;20056;-71
2022/09/22 04:15:49;;;;;;;5.97;3.15;;;;;;;9.69;65.19;99667.34;5127508;28;20059;-71
2022/09/22 04:18:16;;;;;;;3.72;3.28;;;;;;;9.95;65.20;99713.78;5127444;28;20196;-71
2022/09/22 04:20:44;;;;;;;4.13;2.80;;;;;;;9.89;64.93;99709.63;5127263;28;20089;-71
2022/09/22 04:23:11;;;;;;;4.72;2.78;;;;;;;9.37;65.27;99637.03;5127378;28;20056;-71
2022/09/22 04:25:39;;;;;;;4.00;3.05;;;;;;;9.76;65.31;99705.81;5127024;28;20055;-71
2022/09/22 04:28:07;;;;;;;3.45;2.50;;;;;;;9.74;65.58;99705.03;5127440;28;20295;-71
2022/09/22 04:30:35;;;;;;;4.88;3.10;;;;;;;9.72;65.51;99714.84;5126878;28;20055;-71
2022/09/22 04:33:04;;;;;;;5.45;3.00;;;;;;;9.73;65.55;99702.47;5126067;28;20069;-71
2022/09/22 04:35:32;;;;;;;5.72;3.38;;;;;;;9.67;65.91;99695.66;5126300;28;20109;-71
2022/09/22 04:37:59;;;;;;;4.75;2.92;;;;;;;9.61;65.89;99703.88;5126951;28;20051;-71
2022/09/22 04:40:26;;;;;;;5.22;2.53;;;;;;;9.58;66.04;99694.31;5125742;28;20104;-71
2022/09/22 04:42:54;;;;;;;5.68;2.47;;;;;;;9.45;65.88;99668.47;5126724;27;20320;-72
2022/09/22 04:45:21;;;;;;;4.53;2.88;;;;;;;9.57;66.20;99697.00;5126862;28;20300;-71
2022/09/22 04:47:50;;;;;;;3.70;2.60;;;;;;;9.43;66.22;99676.47;5126745;28;20112;-71
2022/09/22 04:50:22;;;;;;;3.55;2.65;;;;;;;9.51;66.46;99707.88;5126678;28;20055;-71
2022/09/22 04:52:51;;;;;;;3.42;2.63;;;;;;;9.48;66.78;99710.66;5126396;27;20273;-71
2022/09/22 04:55:19;;;;;;;4.28;2.85;;;;;;;9.47;66.59;99720.38;5126902;28;20193;-71
2022/09/22 04:57:48;;;;;;;4.38;3.28;;;;;;;9.47;66.66;99712.44;5126539;28;20056;-71
2022/09/22 05:00:16;;;;;;;4.85;3.10;;;;;;;9.32;66.72;99687.50;5126431;28;20179;-71
2022/09/22 05:02:43;;;;;;;4.00;2.80;;;;;;;9.42;66.83;99716.22;5126668;28;20108;-71
2022/09/22 05:05:11;;;;;;;4.18;2.63;;;;;;;8.72;66.74;99601.16;5126729;28;20055;-70
2022/09/22 05:07:42;;;;;;;4.10;2.67;;;;;;;9.40;66.90;99718.94;5126229;28;20265;-71
2022/09/22 05:10:10;;;;;;;4.38;2.88;;;;;;;9.30;66.92;99712.31;5126396;28;20108;-70
2022/09/22 05:12:39;;;;;;;5.10;2.80;;;;;;;9.35;67.09;99727.97;5126462;28;20101;-71
2022/09/22 05:15:09;;;;;;;3.85;2.80;;;;;;;9.21;67.24;99704.78;5126181;28;20063;-71
2022/09/22 05:17:36;;;;;;;4.03;2.75;;;;;;;9.35;67.25;99728.84;5126381;28;20184;-71
2022/09/22 05:20:05;;;;;;;4.60;3.22;;;;;;;9.39;67.12;99721.63;5126536;28;20060;-71
2022/09/22 05:22:32;;;;;;;4.40;3.10;;;;;;;9.24;67.18;99709.94;5126194;27;20055;-70
2022/09/22 05:25:01;;;;;;;3.95;2.60;;;;;;;9.41;66.94;99735.69;5126158;28;20059;-70
2022/09/22 05:27:28;;;;;;;3.53;2.70;;;;;;;9.43;67.01;99745.25;5126343;28;20059;-71
2022/09/22 05:29:55;;;;;;;3.88;2.75;;;;;;;9.48;66.92;99745.06;5126285;28;20072;-71
2022/09/22 05:32:22;;;;;;;5.45;3.30;;;;;;;9.48;67.00;99743.28;5126417;28;20044;-71
2022/09/22 05:34:50;;;;;;;3.70;2.75;;;;;;;9.53;66.87;99746.56;5126067;28;20253;-70
2022/09/22 05:37:17;;;;;;;4.78;3.88;;;;;;;9.47;67.14;99738.06;5125705;28;20055;-71
2022/09/22 05:39:44;;;;;;;5.28;3.17;;;;;;;9.39;66.78;99714.53;5125767;27;20060;-71
2022/09/22 05:42:13;;;;;;;4.30;2.92;;;;;;;9.52;67.03;99749.28;5126152;28;20063;-70
2022/09/22 05:44:40;;;;;;;4.75;3.03;;;;;;;9.48;67.28;99747.69;5126036;28;20097;-70
2022/09/22 05:47:07;;;;;;;5.30;3.22;;;;;;;9.47;67.21;99748.63;5125750;28;20051;-71
2022/09/22 05:49:34;;;;;;;4.53;3.10;;;;;;;9.53;67.11;99746.56;5126124;28;20116;-70
2022/09/22 05:52:02;;;;;;;4.50;3.42;;;;;;;9.45;67.63;99758.41;5125695;28;20250;-71
2022/09/22 05:54:29;;;;;;;3.90;2.95;;;;;;;9.25;67.35;99711.66;5125561;28;20109;-71
2022/09/22 05:56:56;;;;;;;4.47;3.10;;;;;;;9.62;67.18;99751.44;5125932;28;20055;-71
2022/09/22 05:59:25;;;;;;;5.40;3.35;;;;;;;9.75;66.86;99751.75;5126036;28;20055;-71
2022/09/22 06:01:52;;;;;;;4.82;3.40;;;;;;;9.83;66.47;99749.63;5125748;28;20112;-71
2022/09/22 06:04:19;;;;;;;4.40;3.22;;;;;;;9.90;66.75;99752.84;5125663;28;20055;-71
2022/09/22 06:06:46;;;;;;;4.68;3.47;;;;;;;9.94;66.54;99747.34;5125922;28;20052;-70
2022/09/22 06:09:13;;;;;;;6.47;4.15;;;;;;;9.96;66.74;99757.84;5125961;28;20056;-70
2022/09/22 06:11:41;;;;;;;4.43;3.42;;;;;;;10.01;66.54;99760.28;5125913;28;20250;-71
2022/09/22 06:14:08;;;;;;;6.05;3.92;;;;;;;9.83;66.24;99724.94;5125775;28;20059;-71
2022/09/22 06:16:36;;;;;;;4.75;3.63;;;;;;;7.67;65.94;99360.22;5125610;28;20051;-71
2022/09/22 06:19:04;;;;;;;4.93;3.58;;;;;;;10.08;66.13;99765.22;5125833;28;20265;-70
2022/09/22 06:21:32;;;;;;;6.53;4.00;;;;;;;10.12;66.33;99768.59;5125230;28;20059;-70
2022/09/22 06:23:59;;;;;;;6.68;3.63;;;;;;;10.24;65.95;99773.31;5125555;28;20063;-71
2022/09/22 06:26:26;;;;;;;4.38;3.00;;;;;;;10.35;65.74;99771.03;5125318;28;20071;-71
2022/09/22 06:28:54;;;;;;;4.28;3.25;;;;;;;10.32;65.40;99739.38;5125746;28;20307;-71
2022/09/22 06:31:21;;;;;;;5.13;3.33;;;;;;;10.60;65.16;99771.56;5125517;28;20055;-71
2022/09/22 06:33:50;;;;;;;6.10;3.88;;;;;;;8.88;64.49;99464.75;5125683;28;20055;-71
2022/09/22 06:36:19;;;;;;;5.72;3.85;;;;;;;10.66;64.72;99748.34;5124592;28;20295;-71
2022/09/22 06:38:46;;;;;;;5.10;3.22;;;;;;;10.89;64.41;99767.50;5125583;28;20298;-71
2022/09/22 06:41:13;;;;;;;5.10;3.85;;;;;;;10.98;64.27;99771.50;5125563;28;20051;-71
2022/09/22 06:43:41;;;;;;;4.82;3.88;;;;;;;11.08;64.31;99772.75;5125116;28;20055;-71
2022/09/22 06:46:09;;;;;;;4.32;3.33;;;;;;;11.15;64.14;99771.50;5125466;28;20055;-71
2022/09/22 06:48:36;;;;;;;6.30;4.28;;;;;;;11.28;63.53;99773.53;5125344;28;20077;-71
2022/09/22 06:51:05;;;;;;;6.30;3.15;;;;;;;11.36;63.24;99781.94;5125317;28;20319;-71
2022/09/22 06:53:32;;;;;;;5.15;3.45;;;;;;;11.42;63.22;99774.53;5125427;28;20105;-70
2022/09/22 06:56:04;;;;;;;8.10;3.72;;;;;;;11.24;62.75;99733.03;5124977;28;20055;-71
2022/09/22 06:58:32;;;;;;;4.80;3.28;;;;;;;11.58;62.93;99769.28;5125250;28;20039;-71
2022/09/22 07:01:02;;;;;;;4.43;3.17;;;;;;;11.57;62.77;99746.31;5128677;28;20063;-71
2022/09/22 07:03:31;;;;;;;4.85;3.40;;;;;;;11.83;62.81;99758.19;5128891;28;20056;-71
2022/09/22 07:05:59;;;;;;;7.05;3.67;;;;;;;11.83;62.39;99756.41;5128728;28;20265;-71
2022/09/22 07:08:29;;;;;;;3.88;2.85;;;;;;;11.50;62.86;99686.53;5128861;28;20127;-71
2022/09/22 07:10:59;;;;;;;4.85;3.33;;;;;;;11.85;62.23;99745.69;5128713;27;20112;-71
2022/09/22 07:13:28;;;;;;;6.22;3.00;;;;;;;12.03;62.26;99755.34;5128369;28;20056;-71
2022/09/22 07:16:00;;;;;;;4.22;3.08;;;;;;;12.16;61.86;99752.88;5128472;27;20101;-71
2022/09/22 07:18:27;;;;;;;7.47;3.70;;;;;;;12.14;61.92;99752.09;5128274;28;20356;-71
2022/09/22 07:21:01;;;;;;;5.53;3.75;;;;;;;11.88;61.14;99698.59;5128068;28;20101;-71
2022/09/22 07:23:30;;;;;;;5.13;3.60;;;;;;;12.32;61.26;99748.44;5128370;27;20177;-71
2022/09/22 07:25:59;;;;;;;6.30;3.22;;;;;;;12.40;60.86;99748.88;5128677;28;20261;-71
2022/09/22 07:28:28;;;;;;;4.82;3.38;;;;;;;12.49;60.45;99745.69;5128535;27;20051;-71
2022/09/22 07:30:57;;;;;;;4.95;3.03;;;;;;;12.68;60.50;99752.63;5128452;27;20308;-71
2022/09/22 07:33:24;;;;;;;5.47;3.42;;;;;;;12.41;60.68;99708.06;5128902;28;20060;-71
2022/09/22 07:36:01;;;;;;;4.95;2.83;;;;;;;12.79;60.06;99743.09;5128422;28;20051;-71
2022/09/22 07:38:32;;;;;;;5.38;3.20;;;;;;;12.75;60.07;99741.53;5128400;28;20051;-71
2022/09/22 07:41:00;;;;;;;5.45;3.17;;;;;;;12.71;59.95;99732.03;5128295;28;20055;-71
2022/09/22 07:43:27;;;;;;;4.65;3.17;;;;;;;12.80;60.60;99746.59;5127868;28;20063;-71
2022/09/22 07:45:56;;;;;;;4.10;3.10;;;;;;;12.87;60.12;99745.28;5127579;28;20059;-72
2022/09/22 07:48:36;;;;;;;5.38;3.03;;;;;;;12.90;60.58;99744.25;5127957;28;20048;-71
2022/09/22 07:51:05;;;;;;;3.80;3.08;;;;;;;12.83;60.56;99754.41;5127655;28;20116;-72
2022/09/22 07:53:34;;;;;;;4.53;3.00;;;;;;;12.79;60.06;99756.38;5127850;28;20361;-72
2022/09/22 07:56:03;;;;;;;4.13;3.25;;;;;;;12.81;60.84;99748.31;5127884;28;20055;-71
2022/09/22 07:58:32;;;;;;;3.80;2.88;;;;;;;12.76;60.50;99756.56;5127796;28;20065;-71
2022/09/22 08:01:05;;;;;;;4.05;2.90;;;;;;;11.76;60.18;99603.66;5126573;28;20059;-71
2022/09/22 08:03:32;;;;;;;4.00;2.90;;;;;;;12.64;61.29;99761.72;5127920;28;20055;-72
2022/09/22 08:06:04;;;;;;;5.20;3.13;;;;;;;12.71;61.24;99761.28;5127611;28;20063;-71
2022/09/22 08:08:37;;;;;;;4.05;3.20;;;;;;;12.24;60.69;99670.97;5127781;28;20052;-71
2022/09/22 08:11:13;;;;;;;3.83;3.13;;;;;;;12.78;61.37;99767.09;5127894;28;20169;-71
2022/09/22 08:13:43;;;;;;;4.93;3.15;;;;;;;12.75;60.92;99741.53;5127554;28;20316;-71
2022/09/22 08:16:10;;;;;;;5.65;3.08;;;;;;;13.00;60.36;99764.91;5127498;28;20063;-71
2022/09/22 08:18:38;;;;;;;5.10;3.20;;;;;;;13.16;60.34;99763.06;5127077;27;20262;-71
2022/09/22 08:21:06;;;;;;;6.13;3.40;;;;;;;13.26;59.24;99765.19;5127460;28;20062;-71
2022/09/22 08:23:36;;;;;;;5.40;3.05;;;;;;;13.43;59.38;99765.06;5127075;28;20051;-71
2022/09/22 08:26:05;;;;;;;4.70;2.90;;;;;;;13.50;58.80;99758.41;5127387;28;20113;-71
2022/09/22 08:28:32;;;;;;;4.18;2.90;;;;;;;13.59;58.61;99754.34;5126991;28;20052;-71
2022/09/22 08:31:00;;;;;;;4.60;3.33;;;;;;;13.37;58.76;99685.53;5127298;28;20193;-71
2022/09/22 08:33:30;;;;;;;4.15;3.17;;;;;;;13.89;57.73;99752.44;5127255;28;20109;-71
2022/09/22 08:36:02;;;;;;;4.93;3.10;;;;;;;13.99;57.66;99747.38;5126785;28;20120;-72
2022/09/22 08:38:31;;;;;;;4.50;3.05;;;;;;;13.22;57.65;99614.59;5127160;28;20056;-71
2022/09/22 08:41:18;;;;;;;6.88;3.28;;;;;;;14.03;56.82;99746.25;5127139;28;20244;-72
2022/09/22 08:43:49;;;;;;;3.67;2.72;;;;;;;13.92;57.46;99743.41;5124821;28;20102;-71
2022/09/22 08:46:16;;;;;;;3.97;3.30;;;;;;;13.69;58.32;99704.88;5127224;28;20035;-71
2022/09/22 08:51:53;;;;;;;5.20;3.55;;;;;;;14.04;57.43;99747.94;5126596;28;20080;-72
2022/09/22 08:54:25;;;;;;;5.00;3.22;;;;;;;14.02;57.06;99747.19;5126932;28;20055;-72
2022/09/22 08:57:09;;;;;;;5.07;2.67;;;;;;;13.99;56.69;99740.25;5126885;28;20116;-72
2022/09/22 08:59:44;;;;;;;5.07;2.95;;;;;;;14.08;57.37;99754.81;5126540;28;20316;-71
2022/09/22 09:02:33;;;;;;;5.38;3.40;;;;;;;14.15;56.33;99742.78;5126449;28;20056;-72
2022/09/22 09:05:41;;;;;;;4.85;3.22;;;;;;;14.21;56.01;99746.88;5126613;28;20051;-71
2022/09/22 09:08:22;;;;;;;5.57;3.20;;;;;;;14.11;56.08;99728.81;5126142;28;20043;-71
2022/09/22 09:10:54;;;;;;;7.05;3.05;;;;;;;14.23;56.44;99737.84;5126699;28;20120;-72
2022/09/22 09:13:44;;;;;;;3.75;3.03;;;;;;;14.25;55.90;99735.06;5126576;28;20308;-71
2022/09/22 09:16:29;;;;;;;6.10;3.20;;;;;;;14.25;56.49;99740.41;5126350;28;20056;-71
2022/09/22 09:19:00;;;;;;;;;;;;;;;14.09;56.14;99737.84;5126784;27;20101;-71
2022/09/22 09:21:32;;;;;;;3.50;2.60;;;;;;;14.12;57.68;99722.53;5126114;28;19981;-71
2022/09/22 09:24:05;;;;;;;4.45;3.20;;;;;;;14.23;56.74;99727.16;5126162;28;20081;-71
2022/09/22 09:26:34;;;;;;;6.03;3.53;;;;;;;14.40;56.96;99739.41;5125812;28;20055;-71
2022/09/22 09:29:07;;;;;;;5.20;2.97;;;;;;;14.13;56.04;99672.75;5126216;28;20047;-71
2022/09/22 09:31:39;;;;;;;5.22;2.83;;;;;;;14.55;55.94;99732.22;5126073;28;20105;-72
2022/09/22 09:34:10;;;;;;;4.53;3.78;;;;;;;14.70;55.84;99736.63;5126084;28;20101;-71
2022/09/22 09:36:41;;;;;;;4.28;3.03;;;;;;;14.84;55.52;99728.56;5126076;28;20063;-72
2022/09/22 09:39:13;;;;;;;4.00;2.63;;;;;;;15.02;55.05;99731.78;5126135;28;20051;-71
2022/09/22 09:41:45;;;;;;;3.63;2.60;;;;;;;15.17;55.41;99724.56;5126148;28;20245;-71
2022/09/22 09:44:23;;;;;;;4.30;2.90;;;;;;;15.34;52.90;99724.25;5125895;28;20109;-72
2022/09/22 09:46:56;;;;;;;3.70;2.65;;;;;;;14.78;53.47;99600.88;5126123;28;20055;-71
2022/09/22 09:49:24;;;;;;;6.03;3.60;;;;;;;15.58;52.60;99719.03;5125726;28;20059;-71
2022/09/22 09:51:53;;;;;;;4.97;3.42;;;;;;;15.70;53.28;99718.19;5125523;28;20052;-72
2022/09/22 09:54:22;;;;;;;3.47;2.75;;;;;;;15.64;52.94;99703.44;5126004;28;20112;-72
2022/09/22 09:57:04;;;;;;;4.50;3.38;;;;;;;15.80;51.71;99719.25;5125646;28;20222;-72
2022/09/22 10:02:21;;;;;;;5.00;2.90;;;;;;;15.89;52.81;99725.78;5126056;28;20136;-71
2022/09/22 10:04:52;;;;;;;3.40;2.70;;;;;;;15.75;52.37;99710.72;5125743;28;20105;-71
2022/09/22 10:07:23;;;;;;;4.05;2.80;;;;;;;15.76;52.27;99722.25;5125580;28;20101;-71
2022/09/22 10:09:53;;;;;;;4.40;3.00;;;;;;;15.70;51.76;99720.88;5125572;28;20113;-71
2022/09/22 10:12:23;;;;;;;4.65;2.95;;;;;;;15.66;52.19;99727.41;5125198;28;20079;-71
2022/09/22 10:14:54;;;;;;;3.97;2.85;;;;;;;15.59;52.38;99726.94;5125671;28;20055;-71
2022/09/22 10:17:23;;;;;;;5.22;2.95;;;;;;;15.60;53.23;99717.09;5125456;28;20101;-72
2022/09/22 10:19:50;;;;;;;3.58;2.65;;;;;;;15.60;53.27;99707.28;5125369;28;20051;-71
2022/09/22 10:22:26;;;;;;;4.32;2.67;;;;;;;15.59;51.71;99716.25;5125319;28;20109;-71
2022/09/22 10:24:59;;;;;;;3.85;2.88;;;;;;;15.42;51.66;99689.88;5125191;28;20055;-72
2022/09/22 10:27:27;;;;;;;4.45;2.95;;;;;;;15.37;52.86;99686.66;5125447;28;20086;-71
2022/09/22 10:30:21;;;;;;;3.83;2.70;;;;;;;15.42;51.84;99707.72;5125165;28;20055;-72
2022/09/22 10:33:14;;;;;;;5.05;2.90;;;;;;;15.42;51.89;99710.38;5124927;28;20063;-71
2022/09/22 10:35:43;;;;;;;4.13;2.63;;;;;;;15.32;53.18;99708.34;5120714;28;20105;-72
2022/09/22 10:38:20;;;;;;;4.05;3.17;;;;;;;14.78;51.57;99619.56;5129497;28;20063;-71
2022/09/22 10:40:53;;;;;;;5.20;3.35;;;;;;;15.52;53.17;99714.97;5129069;28;20096;-71
2022/09/22 10:43:35;;;;;;;4.28;2.88;;;;;;;15.59;51.72;99716.25;5129469;28;20136;-71
2022/09/22 10:46:19;;;;;;;5.63;2.60;;;;;;;15.50;51.13;99674.16;5128947;28;20056;-72
2022/09/22 10:48:49;;;;;;;3.20;2.25;;;;;;;15.70;51.68;99694.16;5129499;28;20085;-72
2022/09/22 10:51:28;;;;;;;4.35;2.58;;;;;;;15.84;50.96;99693.16;5128780;28;20262;-72
2022/09/22 10:54:13;;;;;;;4.05;2.75;;;;;;;15.86;50.50;99691.25;5129328;28;20065;-71
2022/09/22 10:56:43;;;;;;;;;;;;;;;15.70;51.29;99688.81;5129811;28;20059;-71
2022/09/22 10:59:37;;;;;;;5.28;2.65;;;;;;;15.73;53.67;99696.59;5128781;27;19953;-71
2022/09/22 11:02:44;;;;;;;4.75;2.90;;;;;;;15.61;55.24;99694.78;5129142;28;20242;-71
2022/09/22 11:14:04;;;;;;;5.75;3.40;;;;;;;15.28;56.77;99700.66;5128115;28;20050;-71
2022/09/22 11:16:57;;;;;;;4.20;3.15;;;;;;;15.13;56.78;99675.88;5128644;28;20063;-71
2022/09/22 11:19:49;;;;;;;6.05;4.50;;;;;;;15.17;55.56;99692.53;5128602;28;20055;-72
2022/09/22 11:22:32;;;;;;;4.72;3.47;;;;;;;15.04;56.22;99679.16;5125630;28;20100;-71
2022/09/22 11:25:16;;;;;;;5.90;4.25;;;;;;;15.08;56.56;99686.84;5128731;28;20112;-71
2022/09/22 11:27:54;;;;;;;5.05;3.08;;;;;;;15.07;57.56;99663.78;5128186;28;20112;-72
2022/09/22 11:30:22;;;;;;;4.13;2.85;;;;;;;15.00;56.25;99616.28;5127308;28;20046;-71
2022/09/22 11:33:23;;;;;;;5.00;3.22;;;;;;;15.35;54.20;99643.19;5128113;28;20100;-72
2022/09/22 11:36:03;;;;;;;6.50;3.00;;;;;;;15.55;52.88;99641.78;5128353;28;20059;-72
2022/09/22 11:38:54;;;;;;;3.65;2.53;;;;;;;15.55;52.34;99647.97;5128136;28;20097;-72
2022/09/22 11:41:30;;;;;;;4.28;3.28;;;;;;;15.62;52.73;99664.41;5128408;28;20113;-71
2022/09/22 11:44:34;;;;;;;4.80;2.95;;;;;;;15.59;52.06;99660.16;5128448;28;20101;-72
2022/09/22 11:47:25;;;;;;;4.00;2.70;;;;;;;15.35;52.32;99629.84;5128093;28;20113;-72
2022/09/22 11:50:13;;;;;;;4.20;2.60;;;;;;;15.28;52.27;99610.72;5128265;28;20059;-72
2022/09/22 11:52:56;;;;;;;5.80;3.00;;;;;;;14.91;52.81;99556.38;5127614;28;20047;-72
2022/09/22 11:55:34;;;;;;;4.15;2.80;;;;;;;14.96;53.76;99582.75;5110202;28;20329;-71
2022/09/22 11:58:09;;;;;;;4.00;2.78;;;;;;;15.34;53.55;99645.00;5127837;28;20160;-71
2022/09/22 12:00:44;;;;;;;3.42;2.35;;;;;;;15.29;54.44;99644.47;5127880;28;20063;-73
2022/09/22 12:03:16;;;;;;;3.88;2.78;;;;;;;15.24;53.69;99643.94;5128176;28;20036;-74
2022/09/22 12:05:48;;;;;;;4.57;2.70;;;;;;;15.22;53.87;99642.34;5127745;28;20051;-72
2022/09/22 12:08:21;;;;;;;4.45;3.35;;;;;;;15.31;54.13;99634.53;5127627;28;20108;-73
2022/09/22 12:10:50;;;;;;;4.20;3.00;;;;;;;15.44;53.52;99639.88;5127855;28;20044;-73
2022/09/22 12:13:21;;;;;;;3.13;2.20;;;;;;;14.57;51.96;99477.81;5127943;28;20060;-75